Terminal Aerodrome Forecast
Issued by NWS Huntsville, AL

Home | Current Version | Previous Version | Text Only | Print | Product List | Glossary On
Versions: 1 2 3 4 5 6 7 8 9 10 11 12 13 14 15 16 17 18
000
FTUS44 KHUN 231120
TAFHSV
TAF
KHSV 231120Z 2312/2412 VRB03KT P6SM BKN015
      TEMPO 2312/2314 5SM BR BKN010
     FM231900 30005KT P6SM VCSH BKN050
     FM240300 VRB03KT 6SM -SHRA BKN050 OVC250
     FM240800 VRB03KT 4SM SHRA BKN025 OVC100=

USA.gov is the U.S. government's official web portal to all federal, state and local government web resources and services.